Time;durP1;ratioP1;P1;durP2;ratioP2;P2;SDS_P1;SDS_P2;PMS_P1;PMS_P2;Temp;Humidity;BMP_temperature;BMP_pressure;BME280_temperature;BME280_humidity;BME280_pressure;Samples;Min_cycle;Max_cycle;Signal;HPM_P1;HPM_P2
2022/04/29 00:00:36;;;;;;;13.57;6.32;;;;;;;;;;4940619;28;20564;-79
2022/04/29 00:03:02;;;;;;;9.20;5.80;;;;;;;;;;4966065;28;20034;-79
2022/04/29 00:05:31;;;;;;;12.63;6.50;;;;;;;;;;4955300;28;20803;-79
2022/04/29 00:07:56;;;;;;;10.95;6.07;;;;;;;;;;4943444;28;20046;-79
2022/04/29 00:10:21;;;;;;;12.55;6.32;;;;;;;;;;4961358;28;20047;-79
2022/04/29 00:12:48;;;;;;;13.52;6.25;;;;;;;;;;4945265;28;20438;-79
2022/04/29 00:15:15;;;;;;;10.07;6.38;;;;;;;;;;4947012;28;20142;-79
2022/04/29 00:17:41;;;;;;;12.68;6.47;;;;;;;;;;4955903;28;20617;-79
2022/04/29 00:20:08;;;;;;;10.45;6.80;;;;;;;;;;4949438;28;20035;-80
2022/04/29 00:22:34;;;;;;;11.07;6.68;;;;;;;;;;4942120;28;20509;-79
2022/04/29 00:25:00;;;;;;;11.00;6.90;;;;;;;;;;4955475;28;20117;-79
2022/04/29 00:27:25;;;;;;;15.38;6.75;;;;;;;;;;4944734;28;20042;-80
2022/04/29 00:29:51;;;;;;;11.88;6.80;;;;;;;;;;4941864;28;20039;-79
2022/04/29 00:32:16;;;;;;;10.05;6.32;;;;;;;;;;4959666;28;20537;-78
2022/04/29 00:34:41;;;;;;;11.43;7.00;;;;;;;;;;4942599;28;20083;-80
2022/04/29 00:37:07;;;;;;;13.68;7.03;;;;;;;;;;4945381;28;20175;-80
2022/04/29 00:39:32;;;;;;;12.25;6.65;;;;;;;;;;4941967;28;20043;-79
2022/04/29 00:41:58;;;;;;;10.43;6.50;;;;;;;;;;4940303;28;20038;-79
2022/04/29 00:44:23;;;;;;;12.30;6.75;;;;;;;;;;4944935;28;20039;-80
2022/04/29 00:46:50;;;;;;;9.98;6.50;;;;;;;;;;4940132;28;20509;-79
2022/04/29 00:49:16;;;;;;;12.45;6.65;;;;;;;;;;4955825;28;20101;-79
2022/04/29 00:51:44;;;;;;;11.93;6.97;;;;;;;;;;4947172;28;20034;-79
2022/04/29 00:54:16;;;;;;;11.18;6.70;;;;;;;;;;4963745;28;20034;-79
2022/04/29 00:56:42;;;;;;;14.13;6.95;;;;;;;;;;4940599;28;20031;-79
2022/04/29 00:59:29;;;;;;;10.38;7.13;;;;;;;;;;4957282;28;20032;-79
2022/04/29 01:01:56;;;;;;;12.13;6.93;;;;;;;;;;4944315;28;20035;-79
2022/04/29 01:04:25;;;;;;;13.10;7.00;;;;;;;;;;4946694;28;20067;-80
2022/04/29 01:06:50;;;;;;;13.13;7.43;;;;;;;;;;4971690;28;20105;-79
2022/04/29 01:09:16;;;;;;;12.88;7.13;;;;;;;;;;4965291;28;20482;-79
2022/04/29 01:11:41;;;;;;;14.68;6.82;;;;;;;;;;4945389;28;21094;-80
2022/04/29 01:14:06;;;;;;;11.27;7.68;;;;;;;;;;4973407;28;20097;-81
2022/04/29 01:16:32;;;;;;;11.55;7.03;;;;;;;;;;4956426;28;20406;-81
2022/04/29 01:18:58;;;;;;;12.90;7.25;;;;;;;;;;4961383;28;20053;-81
2022/04/29 01:21:25;;;;;;;13.00;7.70;;;;;;;;;;4948995;28;20042;-81
2022/04/29 01:23:50;;;;;;;9.93;6.93;;;;;;;;;;4951378;28;20036;-81
2022/04/29 01:26:16;;;;;;;11.50;7.13;;;;;;;;;;4960124;28;20034;-80
2022/04/29 01:28:45;;;;;;;13.40;7.13;;;;;;;;;;4956724;28;20482;-81
2022/04/29 01:31:14;;;;;;;13.13;7.50;;;;;;;;;;4957026;28;20033;-81
2022/04/29 01:33:46;;;;;;;12.25;7.28;;;;;;;;;;4965700;28;20027;-81
2022/04/29 01:36:11;;;;;;;14.15;7.32;;;;;;;;;;4948286;28;20085;-80
2022/04/29 01:38:37;;;;;;;11.88;7.13;;;;;;;;;;4943304;28;20422;-80
2022/04/29 01:41:04;;;;;;;12.40;7.60;;;;;;;;;;4958398;28;20108;-80
2022/04/29 01:43:30;;;;;;;12.07;7.97;;;;;;;;;;4956951;28;20474;-80
2022/04/29 01:45:55;;;;;;;12.13;7.68;;;;;;;;;;4957904;28;20273;-81
2022/04/29 01:48:21;;;;;;;12.68;7.93;;;;;;;;;;4959863;28;20054;-81
2022/04/29 01:50:47;;;;;;;11.05;6.93;;;;;;;;;;4941577;28;20047;-81
2022/04/29 01:53:13;;;;;;;12.88;7.40;;;;;;;;;;4943652;28;20045;-81
2022/04/29 01:55:38;;;;;;;11.82;8.23;;;;;;;;;;4956778;28;20027;-81
2022/04/29 01:58:03;;;;;;;12.27;7.85;;;;;;;;;;4958878;28;20390;-80
2022/04/29 02:00:29;;;;;;;13.60;7.70;;;;;;;;;;4965714;28;20501;-81
2022/04/29 02:02:55;;;;;;;12.05;7.18;;;;;;;;;;4940861;28;21843;-81
2022/04/29 02:05:21;;;;;;;13.73;8.07;;;;;;;;;;4959137;28;20051;-81
2022/04/29 02:07:46;;;;;;;14.23;7.90;;;;;;;;;;4973075;28;20374;-81
2022/04/29 02:10:11;;;;;;;11.02;7.70;;;;;;;;;;4959411;28;20059;-82
2022/04/29 02:12:37;;;;;;;10.55;7.65;;;;;;;;;;4947098;28;20030;-81
2022/04/29 02:15:02;;;;;;;12.30;7.57;;;;;;;;;;4958087;28;20133;-81
2022/04/29 02:17:28;;;;;;;13.27;8.07;;;;;;;;;;4959703;28;20451;-81
2022/04/29 02:19:53;;;;;;;15.98;7.97;;;;;;;;;;4948630;28;20394;-81
2022/04/29 02:22:18;;;;;;;14.30;8.10;;;;;;;;;;4971147;28;20130;-81
2022/04/29 02:24:44;;;;;;;12.25;7.65;;;;;;;;;;4944343;28;20031;-81
2022/04/29 02:27:09;;;;;;;11.27;7.55;;;;;;;;;;4941126;28;20046;-77
2022/04/29 02:29:37;;;;;;;13.68;8.13;;;;;;;;;;4960951;28;20093;-78
2022/04/29 02:32:03;;;;;;;13.38;8.07;;;;;;;;;;4941403;28;20034;-77
2022/04/29 02:34:28;;;;;;;12.23;7.95;;;;;;;;;;4944177;28;20039;-76
2022/04/29 02:36:54;;;;;;;14.43;8.02;;;;;;;;;;4959666;28;20049;-77
2022/04/29 02:39:22;;;;;;;13.10;7.20;;;;;;;;;;4940417;28;20093;-78
2022/04/29 02:41:48;;;;;;;10.65;7.53;;;;;;;;;;4957571;28;20513;-77
2022/04/29 02:44:13;;;;;;;14.95;8.18;;;;;;;;;;4947361;28;20058;-79
2022/04/29 02:47:06;;;;;;;12.20;7.60;;;;;;;;;;4943527;28;20065;-78
2022/04/29 02:49:24;;;;;;;12.23;8.10;;;;;;;;;;4963755;28;20035;-79
2022/04/29 02:51:49;;;;;;;12.15;7.57;;;;;;;;;;4967168;28;20626;-76
2022/04/29 02:54:15;;;;;;;13.75;8.23;;;;;;;;;;4961370;28;20069;-77
2022/04/29 02:56:41;;;;;;;12.50;8.45;;;;;;;;;;4950699;28;20517;-77
2022/04/29 02:59:06;;;;;;;12.52;7.72;;;;;;;;;;4946664;28;20038;-77
2022/04/29 03:01:33;;;;;;;12.95;8.25;;;;;;;;;;4946546;28;20031;-77
2022/04/29 03:03:59;;;;;;;13.82;8.38;;;;;;;;;;4976149;28;20841;-78
2022/04/29 03:06:24;;;;;;;14.20;8.23;;;;;;;;;;4962305;28;20062;-76
2022/04/29 03:08:49;;;;;;;14.85;9.57;;;;;;;;;;4963509;28;20494;-77
2022/04/29 03:11:14;;;;;;;12.30;7.93;;;;;;;;;;4968759;28;20286;-79
2022/04/29 03:13:40;;;;;;;11.10;7.85;;;;;;;;;;4968622;28;20606;-78
2022/04/29 03:16:05;;;;;;;14.15;8.07;;;;;;;;;;4946913;28;20109;-77
2022/04/29 03:18:30;;;;;;;13.13;8.40;;;;;;;;;;4975913;28;20045;-77
2022/04/29 03:20:58;;;;;;;12.38;8.68;;;;;;;;;;4959595;28;20035;-78
2022/04/29 03:23:24;;;;;;;15.73;8.95;;;;;;;;;;4949816;28;20062;-76
2022/04/29 03:25:52;;;;;;;14.00;8.93;;;;;;;;;;4968441;28;20477;-77
2022/04/29 03:28:18;;;;;;;13.52;8.65;;;;;;;;;;4967763;28;20501;-80
2022/04/29 03:30:43;;;;;;;15.00;8.80;;;;;;;;;;4963141;28;20034;-80
2022/04/29 03:33:09;;;;;;;14.73;8.60;;;;;;;;;;4960023;28;20034;-81
2022/04/29 03:35:39;;;;;;;14.10;8.75;;;;;;;;;;4962453;28;20050;-83
2022/04/29 03:38:07;;;;;;;17.75;8.75;;;;;;;;;;4975572;28;20034;-82
2022/04/29 03:40:33;;;;;;;12.30;7.97;;;;;;;;;;4945721;28;20038;-83
2022/04/29 03:42:58;;;;;;;13.05;8.07;;;;;;;;;;4966513;28;20042;-83
2022/04/29 03:45:25;;;;;;;15.40;8.55;;;;;;;;;;4962896;28;20552;-82
2022/04/29 03:47:51;;;;;;;14.25;8.40;;;;;;;;;;4945132;28;20035;-83
2022/04/29 03:50:16;;;;;;;13.70;7.97;;;;;;;;;;4952271;28;20117;-84
2022/04/29 03:53:08;;;;;;;13.88;7.72;;;;;;;;;;4962093;28;20030;-84
2022/04/29 03:55:35;;;;;;;15.95;8.15;;;;;;;;;;4948941;28;20406;-83
2022/04/29 03:58:04;;;;;;;16.10;8.33;;;;;;;;;;4959357;28;20035;-82
2022/04/29 04:00:32;;;;;;;12.23;7.80;;;;;;;;;;4943521;28;20544;-82
2022/04/29 04:02:58;;;;;;;14.25;8.77;;;;;;;;;;4952449;28;20046;-81
2022/04/29 04:05:24;;;;;;;14.52;8.45;;;;;;;;;;4976793;28;20125;-81
2022/04/29 04:07:49;;;;;;;12.93;8.55;;;;;;;;;;4953996;28;20118;-81
2022/04/29 04:10:15;;;;;;;13.57;8.63;;;;;;;;;;4959796;28;20567;-81
2022/04/29 04:12:49;;;;;;;14.25;8.77;;;;;;;;;;4953916;28;20043;-81
2022/04/29 04:15:17;;;;;;;11.80;7.95;;;;;;;;;;4966198;28;20042;-82
2022/04/29 04:17:43;;;;;;;13.18;8.48;;;;;;;;;;4963587;28;20031;-83
2022/04/29 04:20:10;;;;;;;12.02;8.25;;;;;;;;;;4976909;28;20033;-83
2022/04/29 04:22:35;;;;;;;11.95;8.05;;;;;;;;;;4950849;28;20120;-83
2022/04/29 04:25:12;;;;;;;15.27;8.00;;;;;;;;;;4969727;28;20038;-82
2022/04/29 04:27:38;;;;;;;12.43;8.02;;;;;;;;;;4945681;28;20084;-84
2022/04/29 04:30:05;;;;;;;13.38;7.70;;;;;;;;;;4979036;28;20031;-82
2022/04/29 04:32:33;;;;;;;13.82;8.68;;;;;;;;;;4964907;28;20347;-86
2022/04/29 04:35:00;;;;;;;14.85;8.10;;;;;;;;;;4947043;28;20069;-83
2022/04/29 04:37:26;;;;;;;11.80;7.93;;;;;;;;;;4960943;28;20045;-81
2022/04/29 04:39:52;;;;;;;15.32;8.23;;;;;;;;;;4952097;28;20043;-85
2022/04/29 04:42:18;;;;;;;12.82;7.90;;;;;;;;;;4968008;28;20627;-83
2022/04/29 04:44:48;;;;;;;12.65;8.40;;;;;;;;;;4959034;28;20035;-83
2022/04/29 04:47:13;;;;;;;12.90;7.90;;;;;;;;;;4952893;28;20053;-79
2022/04/29 04:49:39;;;;;;;13.88;7.30;;;;;;;;;;4976126;28;20042;-83
2022/04/29 04:52:05;;;;;;;12.95;7.90;;;;;;;;;;4949794;28;20042;-85
2022/04/29 04:54:30;;;;;;;14.60;8.27;;;;;;;;;;4959247;28;20035;-85
2022/04/29 04:56:55;;;;;;;12.52;8.05;;;;;;;;;;4961298;28;20393;-83
2022/04/29 04:59:21;;;;;;;18.58;7.82;;;;;;;;;;4957239;28;20045;-84
2022/04/29 05:01:46;;;;;;;10.65;7.32;;;;;;;;;;4959389;28;20041;-83
2022/04/29 05:04:12;;;;;;;10.85;7.28;;;;;;;;;;4961473;28;20129;-85
2022/04/29 05:06:37;;;;;;;11.40;7.78;;;;;;;;;;4964671;28;20053;-83
2022/04/29 05:09:04;;;;;;;16.77;8.45;;;;;;;;;;4948158;28;20054;-83
2022/04/29 05:11:30;;;;;;;12.43;8.07;;;;;;;;;;4963570;28;20038;-83
2022/04/29 05:13:55;;;;;;;16.45;8.30;;;;;;;;;;4951331;28;20038;-83
2022/04/29 05:16:20;;;;;;;16.13;8.18;;;;;;;;;;4945942;28;20043;-82
2022/04/29 05:18:46;;;;;;;13.63;8.40;;;;;;;;;;4945472;28;20054;-84
2022/04/29 05:21:11;;;;;;;16.83;7.80;;;;;;;;;;4956350;28;20049;-84
2022/04/29 05:23:36;;;;;;;17.25;8.18;;;;;;;;;;4950681;28;20394;-83
2022/04/29 05:26:02;;;;;;;18.75;9.25;;;;;;;;;;4944882;28;20039;-84
2022/04/29 05:28:28;;;;;;;15.40;9.05;;;;;;;;;;4959862;28;20645;-85
2022/04/29 05:30:53;;;;;;;14.13;9.63;;;;;;;;;;4947851;28;20111;-85
2022/04/29 05:33:18;;;;;;;17.42;10.02;;;;;;;;;;4967276;28;20073;-84
2022/04/29 05:35:44;;;;;;;18.88;9.90;;;;;;;;;;4943227;28;20042;-84
2022/04/29 05:38:09;;;;;;;16.95;10.00;;;;;;;;;;4949772;28;20061;-84
2022/04/29 05:43:18;;;;;;;18.40;9.77;;;;;;;;;;4958149;28;20049;-84
2022/04/29 05:45:43;;;;;;;17.05;9.30;;;;;;;;;;4950861;28;20143;-86
2022/04/29 05:48:09;;;;;;;14.00;8.52;;;;;;;;;;4950485;28;20041;-87
2022/04/29 05:50:34;;;;;;;13.93;9.60;;;;;;;;;;4947614;28;20043;-90
2022/04/29 05:53:07;;;;;;;15.75;8.77;;;;;;;;;;4947340;28;20035;-81
2022/04/29 05:55:32;;;;;;;14.18;8.50;;;;;;;;;;4947182;28;20035;-81
2022/04/29 05:57:58;;;;;;;17.40;8.88;;;;;;;;;;4942326;28;20035;-81
2022/04/29 06:00:23;;;;;;;18.15;8.05;;;;;;;;;;4956575;28;20035;-81
2022/04/29 06:02:52;;;;;;;21.98;9.27;;;;;;;;;;4943162;28;20128;-81
2022/04/29 06:05:17;;;;;;;12.07;7.18;;;;;;;;;;4960327;28;20106;-83
2022/04/29 06:07:43;;;;;;;14.32;6.72;;;;;;;;;;4952805;28;20149;-81
2022/04/29 06:10:09;;;;;;;14.68;6.78;;;;;;;;;;4946258;28;20038;-81
2022/04/29 06:12:39;;;;;;;12.40;7.03;;;;;;;;;;4964839;28;20430;-83
2022/04/29 06:15:05;;;;;;;13.02;7.85;;;;;;;;;;4969772;28;20043;-82
2022/04/29 06:17:32;;;;;;;13.02;6.82;;;;;;;;;;4975000;28;20346;-82
2022/04/29 06:19:58;;;;;;;11.20;6.15;;;;;;;;;;4954525;28;20034;-82
2022/04/29 06:22:41;;;;;;;13.85;6.25;;;;;;;;;;4937415;28;20031;-81
2022/04/29 06:25:06;;;;;;;11.82;5.90;;;;;;;;;;4960220;28;20113;-81
2022/04/29 06:27:32;;;;;;;9.95;5.45;;;;;;;;;;4976358;28;20042;-83
2022/04/29 06:29:57;;;;;;;9.82;5.07;;;;;;;;;;4966978;28;20034;-83
2022/04/29 06:32:22;;;;;;;13.02;5.57;;;;;;;;;;4974028;28;20498;-82
2022/04/29 06:34:57;;;;;;;12.27;5.28;;;;;;;;;;4960382;28;20109;-85
2022/04/29 06:37:22;;;;;;;9.13;5.40;;;;;;;;;;4945808;28;20038;-82
2022/04/29 06:39:48;;;;;;;8.18;5.18;;;;;;;;;;4955912;28;20030;-83
2022/04/29 06:42:13;;;;;;;10.57;5.57;;;;;;;;;;4973971;28;20043;-84
2022/04/29 06:44:41;;;;;;;12.57;6.25;;;;;;;;;;4974467;28;20081;-82
2022/04/29 06:47:06;;;;;;;;;;;;;;;;;;4962463;28;20058;-83
2022/04/29 06:49:32;;;;;;;12.87;5.97;;;;;;;;;;4958226;28;19981;-82
2022/04/29 06:51:58;;;;;;;11.40;5.78;;;;;;;;;;4955482;28;20281;-82
2022/04/29 06:54:26;;;;;;;11.98;5.93;;;;;;;;;;4958248;28;20054;-82
2022/04/29 06:56:52;;;;;;;12.80;5.78;;;;;;;;;;4964110;28;20093;-81
2022/04/29 06:59:18;;;;;;;9.48;4.50;;;;;;;;;;4949105;28;20101;-83
2022/04/29 07:01:43;;;;;;;10.77;4.90;;;;;;;;;;4956503;28;20560;-81
2022/04/29 07:04:08;;;;;;;13.55;5.82;;;;;;;;;;4949936;28;20058;-82
2022/04/29 07:06:34;;;;;;;15.60;5.53;;;;;;;;;;4943147;28;20559;-82
2022/04/29 07:09:02;;;;;;;11.85;5.32;;;;;;;;;;4966043;28;20038;-82
2022/04/29 07:11:29;;;;;;;12.13;4.28;;;;;;;;;;4961710;28;20529;-81
2022/04/29 07:13:55;;;;;;;8.98;3.78;;;;;;;;;;4959804;28;20505;-81
2022/04/29 07:16:20;;;;;;;9.55;3.20;;;;;;;;;;4947812;28;20101;-82
2022/04/29 07:18:46;;;;;;;8.50;3.13;;;;;;;;;;4963766;28;20042;-82
2022/04/29 07:21:11;;;;;;;7.97;2.95;;;;;;;;;;4959499;28;20507;-82
2022/04/29 07:23:37;;;;;;;7.13;3.00;;;;;;;;;;4943427;28;20476;-82
2022/04/29 07:26:02;;;;;;;11.15;3.47;;;;;;;;;;4934669;28;20426;-82
2022/04/29 07:28:27;;;;;;;7.50;2.97;;;;;;;;;;4958639;28;20405;-82
2022/04/29 07:30:53;;;;;;;11.88;2.42;;;;;;;;;;4958780;28;20062;-82
2022/04/29 07:33:19;;;;;;;6.82;2.20;;;;;;;;;;4960039;28;20066;-83
2022/04/29 07:43:56;;;;;;;8.55;2.70;;;;;;;;;;4967966;28;20077;-82
2022/04/29 07:46:21;;;;;;;12.70;3.22;;;;;;;;;;4975184;28;20335;-82
2022/04/29 07:48:48;;;;;;;11.00;3.55;;;;;;;;;;4957939;28;20038;-82
2022/04/29 07:51:13;;;;;;;7.70;2.35;;;;;;;;;;4952370;28;20073;-82
2022/04/29 07:53:38;;;;;;;8.85;2.72;;;;;;;;;;4960852;28;20043;-82
2022/04/29 07:56:05;;;;;;;8.40;2.65;;;;;;;;;;4962682;28;20045;-82
2022/04/29 07:58:30;;;;;;;6.82;2.40;;;;;;;;;;4959990;28;20034;-82
2022/04/29 08:00:56;;;;;;;7.05;2.35;;;;;;;;;;4949659;28;20396;-82
2022/04/29 08:03:22;;;;;;;8.43;2.55;;;;;;;;;;4962753;28;20112;-83
2022/04/29 08:05:47;;;;;;;11.68;4.07;;;;;;;;;;4964685;28;20042;-83
2022/04/29 08:08:14;;;;;;;7.03;2.17;;;;;;;;;;4952531;28;20050;-83
2022/04/29 08:10:39;;;;;;;6.38;2.05;;;;;;;;;;4964536;28;20062;-82
2022/04/29 08:13:04;;;;;;;8.85;2.33;;;;;;;;;;4962667;28;20056;-82
2022/04/29 08:15:31;;;;;;;7.88;2.00;;;;;;;;;;4956490;28;20043;-82
2022/04/29 08:17:59;;;;;;;8.05;2.25;;;;;;;;;;4944877;28;20490;-84
2022/04/29 08:20:25;;;;;;;9.43;2.75;;;;;;;;;;4948521;28;20485;-83
2022/04/29 08:22:51;;;;;;;7.60;2.35;;;;;;;;;;4961604;28;20058;-83
2022/04/29 08:25:18;;;;;;;6.55;2.20;;;;;;;;;;4956306;28;20516;-83
2022/04/29 08:27:44;;;;;;;;;;;;;;;;;;4968801;28;20038;-83
2022/04/29 08:30:09;;;;;;;6.40;2.13;;;;;;;;;;4958757;28;19918;-84
2022/04/29 08:33:01;;;;;;;6.78;2.13;;;;;;;;;;4925059;28;20046;-83
2022/04/29 08:35:30;;;;;;;8.07;2.25;;;;;;;;;;4941991;28;20089;-83
2022/04/29 08:38:00;;;;;;;7.38;1.90;;;;;;;;;;4941573;28;20038;-81
2022/04/29 08:40:27;;;;;;;6.35;1.90;;;;;;;;;;4946819;28;20125;-81
2022/04/29 08:42:57;;;;;;;8.73;2.13;;;;;;;;;;4945204;28;20114;-82
2022/04/29 08:45:23;;;;;;;6.45;2.20;;;;;;;;;;4973499;28;20035;-81
2022/04/29 08:47:48;;;;;;;8.35;2.60;;;;;;;;;;4963845;28;20035;-82
2022/04/29 08:50:15;;;;;;;7.85;3.17;;;;;;;;;;4951830;28;20041;-82
2022/04/29 08:52:41;;;;;;;7.68;2.90;;;;;;;;;;4964100;28;20034;-82
2022/04/29 09:00:42;;;;;;;6.63;3.35;;;;;;;;;;4973795;28;20046;-80
2022/04/29 09:03:16;;;;;;;7.35;3.13;;;;;;;;;;4946018;28;20035;-83
2022/04/29 09:05:42;;;;;;;9.05;2.65;;;;;;;;;;4949247;28;20553;-80
2022/04/29 09:08:11;;;;;;;6.75;2.88;;;;;;;;;;4945413;28;20947;-80
2022/04/29 09:10:38;;;;;;;8.55;2.58;;;;;;;;;;4964825;28;20127;-80
2022/04/29 09:13:17;;;;;;;10.80;2.65;;;;;;;;;;4948296;28;20544;-80
2022/04/29 09:15:47;;;;;;;5.78;2.75;;;;;;;;;;4956817;28;20034;-80
2022/04/29 09:18:13;;;;;;;6.25;2.63;;;;;;;;;;4943732;28;20043;-83
2022/04/29 09:20:39;;;;;;;6.43;2.45;;;;;;;;;;4948588;28;20049;-80
2022/04/29 09:23:04;;;;;;;7.85;2.60;;;;;;;;;;4974591;28;20039;-81
2022/04/29 09:25:38;;;;;;;7.63;3.33;;;;;;;;;;4966669;28;20040;-80
2022/04/29 09:28:04;;;;;;;6.38;2.70;;;;;;;;;;4972699;28;20173;-82
2022/04/29 09:30:32;;;;;;;5.78;2.80;;;;;;;;;;4945410;28;20322;-80
2022/04/29 09:32:57;;;;;;;5.82;2.75;;;;;;;;;;4959846;28;20050;-80
2022/04/29 09:35:40;;;;;;;7.35;2.55;;;;;;;;;;4961540;28;20108;-80
2022/04/29 09:40:50;;;;;;;5.72;2.38;;;;;;;;;;4958266;28;21140;-81
2022/04/29 09:43:15;;;;;;;7.18;2.67;;;;;;;;;;4963306;28;20062;-81
2022/04/29 09:45:43;;;;;;;7.80;2.83;;;;;;;;;;4932905;28;20035;-81
2022/04/29 09:48:09;;;;;;;8.18;2.60;;;;;;;;;;4950401;28;20035;-82
2022/04/29 09:50:48;;;;;;;6.15;2.40;;;;;;;;;;4948046;28;20049;-82
2022/04/29 09:53:20;;;;;;;6.60;2.65;;;;;;;;;;4945353;28;20477;-85
2022/04/29 09:56:11;;;;;;;6.50;2.38;;;;;;;;;;4955136;28;20461;-85
2022/04/29 09:58:37;;;;;;;7.68;2.80;;;;;;;;;;4947305;28;20501;-89
2022/04/29 10:01:04;;;;;;;6.07;2.20;;;;;;;;;;4960457;28;20097;-86
2022/04/29 10:03:35;;;;;;;5.95;2.70;;;;;;;;;;4944735;28;20077;-86
2022/04/29 10:06:01;;;;;;;6.47;2.45;;;;;;;;;;4938781;28;20043;-88
2022/04/29 10:08:27;;;;;;;7.30;2.63;;;;;;;;;;4944041;28;20109;-86
2022/04/29 10:10:54;;;;;;;6.65;2.47;;;;;;;;;;4973337;28;20034;-86
2022/04/29 10:13:21;;;;;;;7.13;2.20;;;;;;;;;;4964512;28;20047;-85
2022/04/29 10:15:46;;;;;;;5.78;2.40;;;;;;;;;;4949097;28;20050;-85
2022/04/29 10:21:17;;;;;;;7.53;2.20;;;;;;;;;;4963373;28;20065;-87
2022/04/29 10:23:50;;;;;;;7.05;2.17;;;;;;;;;;4956642;28;20035;-94
2022/04/29 10:26:17;;;;;;;5.95;2.35;;;;;;;;;;4957139;28;20042;-93
2022/04/29 10:28:43;;;;;;;6.10;2.30;;;;;;;;;;4960891;28;20039;-94
2022/04/29 10:31:16;;;;;;;5.32;2.15;;;;;;;;;;4949172;28;20031;-88
2022/04/29 10:33:44;;;;;;;6.28;2.10;;;;;;;;;;4966146;28;20117;-86
2022/04/29 10:36:10;;;;;;;5.53;2.00;;;;;;;;;;4964946;28;20134;-87
2022/04/29 10:38:41;;;;;;;8.63;2.20;;;;;;;;;;4959800;28;20428;-85
2022/04/29 10:41:06;;;;;;;6.05;2.38;;;;;;;;;;4965435;28;20039;-91
2022/04/29 10:43:35;;;;;;;5.68;2.50;;;;;;;;;;4958059;28;20521;-91
2022/04/29 10:46:03;;;;;;;7.13;2.35;;;;;;;;;;4960756;28;20026;-85
2022/04/29 10:48:36;;;;;;;8.25;2.40;;;;;;;;;;4955183;28;20573;-85
2022/04/29 10:51:26;;;;;;;6.93;2.20;;;;;;;;;;4964443;28;20031;-84
2022/04/29 10:53:53;;;;;;;8.05;1.98;;;;;;;;;;4956554;28;20649;-86
2022/04/29 10:56:31;;;;;;;;;;;;;;;;;;4954932;28;20504;-84
2022/04/29 10:59:11;;;;;;;6.07;2.08;;;;;;;;;;4971630;28;19957;-84
2022/04/29 11:01:40;;;;;;;7.35;1.90;;;;;;;;;;4972438;28;20406;-84
2022/04/29 11:04:15;;;;;;;4.53;1.92;;;;;;;;;;4948804;28;20132;-85
2022/04/29 11:06:42;;;;;;;6.13;1.90;;;;;;;;;;4971800;28;20537;-84
2022/04/29 11:09:38;;;;;;;6.00;2.03;;;;;;;;;;4974558;28;20039;-84
2022/04/29 11:12:04;;;;;;;6.20;1.80;;;;;;;;;;4959596;28;20089;-83
2022/04/29 11:14:29;;;;;;;5.33;1.90;;;;;;;;;;4960692;28;20042;-84
2022/04/29 11:17:02;;;;;;;7.23;1.83;;;;;;;;;;4950799;28;20046;-85
2022/04/29 11:19:34;;;;;;;7.00;1.67;;;;;;;;;;4965378;28;20058;-84
2022/04/29 11:24:48;;;;;;;5.93;1.50;;;;;;;;;;4964324;28;20045;-84
2022/04/29 11:27:14;;;;;;;5.07;1.70;;;;;;;;;;4967947;28;20041;-84
2022/04/29 11:29:44;;;;;;;5.00;1.87;;;;;;;;;;4947069;28;20045;-82
2022/04/29 11:32:10;;;;;;;4.68;1.73;;;;;;;;;;4963973;28;20031;-83
2022/04/29 11:34:36;;;;;;;8.03;2.10;;;;;;;;;;4975117;28;20105;-84
2022/04/29 11:37:01;;;;;;;5.43;1.77;;;;;;;;;;4964578;28;20117;-87
2022/04/29 11:39:26;;;;;;;7.20;1.70;;;;;;;;;;4948943;28;20171;-86
2022/04/29 11:42:01;;;;;;;6.20;1.97;;;;;;;;;;4952190;28;20067;-84
2022/04/29 11:44:42;;;;;;;13.07;2.50;;;;;;;;;;4975593;28;20035;-85
2022/04/29 11:47:07;;;;;;;8.75;2.00;;;;;;;;;;4954420;28;20170;-86
2022/04/29 11:49:34;;;;;;;8.13;2.10;;;;;;;;;;4944007;28;20118;-84
2022/04/29 11:52:21;;;;;;;17.75;2.65;;;;;;;;;;4954002;28;20035;-84
2022/04/29 11:55:03;;;;;;;4.80;1.80;;;;;;;;;;4974707;28;20039;-83
2022/04/29 11:57:30;;;;;;;5.55;1.92;;;;;;;;;;4964626;28;20670;-84
2022/04/29 11:59:56;;;;;;;5.78;1.80;;;;;;;;;;4953179;28;20065;-83
2022/04/29 12:02:23;;;;;;;5.38;1.70;;;;;;;;;;4960234;28;20062;-82
2022/04/29 12:04:56;;;;;;;4.20;1.90;;;;;;;;;;4952115;28;20051;-81
2022/04/29 12:07:22;;;;;;;5.20;2.10;;;;;;;;;;4943041;28;20560;-81
2022/04/29 12:09:47;;;;;;;7.65;2.20;;;;;;;;;;4968027;28;20516;-82
2022/04/29 12:12:23;;;;;;;6.60;2.30;;;;;;;;;;4949008;28;20093;-82
2022/04/29 12:14:48;;;;;;;6.43;2.35;;;;;;;;;;4976028;28;20465;-82
2022/04/29 12:17:17;;;;;;;5.03;2.20;;;;;;;;;;4964159;28;20077;-82
2022/04/29 12:19:42;;;;;;;8.20;2.78;;;;;;;;;;4959860;28;20570;-82
2022/04/29 12:22:09;;;;;;;7.63;2.63;;;;;;;;;;4951545;28;20114;-82
2022/04/29 12:24:42;;;;;;;5.95;2.47;;;;;;;;;;4961924;28;20035;-81
2022/04/29 12:27:08;;;;;;;5.40;2.30;;;;;;;;;;4951812;28;20113;-82
2022/04/29 12:29:36;;;;;;;6.33;2.63;;;;;;;;;;4965949;28;20045;-82
2022/04/29 12:35:09;;;;;;;5.18;2.10;;;;;;;;;;4961656;28;20457;-82
2022/04/29 12:37:34;;;;;;;5.65;2.28;;;;;;;;;;4951828;28;20089;-82
2022/04/29 12:40:10;;;;;;;6.40;2.30;;;;;;;;;;4952134;28;20113;-82
2022/04/29 12:42:36;;;;;;;5.07;1.95;;;;;;;;;;4941700;28;20038;-82
2022/04/29 12:45:09;;;;;;;7.18;2.53;;;;;;;;;;4949986;28;20043;-82
2022/04/29 12:47:41;;;;;;;6.32;2.85;;;;;;;;;;4961102;28;20041;-82
2022/04/29 12:50:18;;;;;;;5.85;2.65;;;;;;;;;;4962621;28;20035;-82
2022/04/29 12:53:06;;;;;;;8.93;2.85;;;;;;;;;;4971977;28;20045;-81
2022/04/29 12:55:38;;;;;;;;;;;;;;;;;;4949131;28;20065;-82
2022/04/29 12:58:04;;;;;;;9.82;2.85;;;;;;;;;;4966792;28;20280;-81
2022/04/29 13:00:32;;;;;;;7.40;2.78;;;;;;;;;;4956894;28;21507;-84
2022/04/29 13:03:12;;;;;;;6.30;2.80;;;;;;;;;;4960697;28;20035;-86
2022/04/29 13:05:40;;;;;;;8.98;2.80;;;;;;;;;;4955498;28;20086;-84
2022/04/29 13:08:07;;;;;;;5.57;2.78;;;;;;;;;;4956642;28;20034;-86
2022/04/29 13:10:41;;;;;;;6.25;2.95;;;;;;;;;;4944717;28;20030;-84
2022/04/29 13:13:06;;;;;;;6.45;2.60;;;;;;;;;;4959432;28;20046;-83
2022/04/29 13:15:33;;;;;;;6.40;2.80;;;;;;;;;;4961132;28;20030;-86
2022/04/29 13:17:59;;;;;;;5.07;2.33;;;;;;;;;;4960112;28;20418;-84
2022/04/29 13:20:25;;;;;;;8.63;2.33;;;;;;;;;;4943389;28;20034;-83
2022/04/29 13:22:54;;;;;;;6.18;2.42;;;;;;;;;;4957290;28;20129;-83
2022/04/29 13:25:20;;;;;;;5.45;2.30;;;;;;;;;;4967308;28;20494;-85
2022/04/29 13:27:45;;;;;;;5.85;2.22;;;;;;;;;;4944221;28;20035;-83
2022/04/29 13:30:11;;;;;;;10.13;2.30;;;;;;;;;;4947759;28;20397;-83
2022/04/29 13:32:37;;;;;;;6.70;2.25;;;;;;;;;;4973115;28;20034;-83
2022/04/29 13:35:03;;;;;;;5.80;2.25;;;;;;;;;;4948243;28;20482;-81
2022/04/29 13:37:32;;;;;;;4.68;2.20;;;;;;;;;;4950126;28;20031;-83
2022/04/29 13:39:57;;;;;;;8.43;2.53;;;;;;;;;;4940251;28;20122;-82
2022/04/29 13:42:23;;;;;;;8.75;3.03;;;;;;;;;;4957893;28;20464;-85
2022/04/29 13:44:48;;;;;;;7.00;2.55;;;;;;;;;;4941436;28;20039;-84
2022/04/29 13:47:15;;;;;;;5.72;2.40;;;;;;;;;;4943286;28;20049;-85
2022/04/29 13:49:40;;;;;;;5.85;2.00;;;;;;;;;;4959874;28;20058;-85
2022/04/29 13:54:50;;;;;;;4.47;2.28;;;;;;;;;;4975227;28;20046;-78
2022/04/29 13:57:15;;;;;;;7.60;2.10;;;;;;;;;;4941569;28;20042;-79
2022/04/29 13:59:40;;;;;;;4.97;2.08;;;;;;;;;;4944358;28;20458;-81
2022/04/29 14:02:08;;;;;;;7.97;2.10;;;;;;;;;;4959211;28;20134;-81
2022/04/29 14:04:33;;;;;;;5.45;2.00;;;;;;;;;;4970821;28;20478;-81
2022/04/29 14:06:58;;;;;;;5.53;2.10;;;;;;;;;;4949668;28;20077;-81
2022/04/29 14:09:24;;;;;;;7.20;2.00;;;;;;;;;;4957808;28;20042;-81
2022/04/29 14:11:50;;;;;;;6.47;3.10;;;;;;;;;;4957718;28;20046;-83
2022/04/29 14:14:15;;;;;;;6.78;2.70;;;;;;;;;;4972958;28;20042;-81
2022/04/29 14:16:41;;;;;;;5.38;2.17;;;;;;;;;;4959202;28;20034;-81
2022/04/29 14:19:06;;;;;;;6.05;1.95;;;;;;;;;;4960543;28;20062;-82
2022/04/29 14:21:33;;;;;;;7.85;1.92;;;;;;;;;;4934455;28;20931;-83
2022/04/29 14:23:58;;;;;;;5.15;2.00;;;;;;;;;;4947805;28;20456;-82
2022/04/29 14:26:24;;;;;;;4.00;1.70;;;;;;;;;;4957641;28;20046;-82
2022/04/29 14:28:50;;;;;;;7.10;2.00;;;;;;;;;;4956691;28;20089;-81
2022/04/29 14:31:16;;;;;;;6.07;2.00;;;;;;;;;;4952241;28;20394;-82
2022/04/29 14:33:42;;;;;;;4.53;1.60;;;;;;;;;;4957839;28;20043;-83
2022/04/29 14:36:08;;;;;;;5.20;1.70;;;;;;;;;;4932861;28;20035;-81
2022/04/29 14:38:34;;;;;;;4.88;1.27;;;;;;;;;;4947264;28;20031;-81
2022/04/29 14:40:59;;;;;;;6.43;1.60;;;;;;;;;;4940979;28;20046;-82
2022/04/29 14:43:25;;;;;;;3.90;1.50;;;;;;;;;;4961919;28;20065;-82
2022/04/29 14:45:50;;;;;;;5.30;1.70;;;;;;;;;;4950772;28;20760;-82
2022/04/29 14:48:16;;;;;;;6.10;1.50;;;;;;;;;;4964638;28;20035;-82
2022/04/29 14:50:42;;;;;;;4.20;1.60;;;;;;;;;;4946885;28;20074;-82
2022/04/29 14:53:08;;;;;;;6.63;1.50;;;;;;;;;;4962016;28;20042;-82
2022/04/29 14:55:36;;;;;;;8.43;2.17;;;;;;;;;;4936779;28;20038;-83
2022/04/29 14:58:01;;;;;;;3.85;1.90;;;;;;;;;;4969333;28;20491;-83
2022/04/29 15:00:26;;;;;;;5.18;1.85;;;;;;;;;;4962616;28;20035;-83
2022/04/29 15:02:51;;;;;;;5.45;1.90;;;;;;;;;;4946977;28;20054;-83
2022/04/29 15:05:26;;;;;;;5.75;1.98;;;;;;;;;;4965945;28;20047;-83
2022/04/29 15:08:01;;;;;;;4.45;2.08;;;;;;;;;;4924380;28;20058;-83
2022/04/29 15:15:54;;;;;;;6.22;2.40;;;;;;;;;;4965547;28;20422;-84